createdAt,value
2019-06-07T00:01:41.225Z,62.24
2019-06-07T00:04:12.042Z,62.13
2019-06-07T00:06:41.510Z,62.30
2019-06-07T00:09:12.657Z,62.63
2019-06-07T00:11:41.475Z,62.90
2019-06-07T00:14:13.099Z,62.36
2019-06-07T00:16:41.484Z,62.50
2019-06-07T00:19:12.079Z,62.96
2019-06-07T00:22:13.837Z,63.04
2019-06-07T00:24:14.287Z,63.12
2019-06-07T00:26:57.821Z,63.74
2019-06-07T00:29:15.410Z,63.51
2019-06-07T00:31:44.803Z,64.22
2019-06-07T00:34:16.070Z,63.91
2019-06-07T00:36:44.843Z,63.73
2019-06-07T00:39:18.298Z,63.93
2019-06-07T00:41:44.907Z,64.45
2019-06-07T00:44:15.144Z,63.98
2019-06-07T00:46:45.105Z,64.16
2019-06-07T00:49:31.320Z,64.33
2019-06-07T00:51:50.778Z,64.30
2019-06-07T00:54:19.514Z,64.44
2019-06-07T00:56:46.792Z,64.53
2019-06-07T00:59:18.533Z,64.54
2019-06-07T01:01:46.913Z,64.61
2019-06-07T01:04:19.441Z,64.83
2019-06-07T01:06:46.930Z,64.98
2019-06-07T01:09:17.766Z,65.44
2019-06-07T01:11:46.914Z,65.12
2019-06-07T01:14:19.398Z,65.44
2019-06-07T01:16:57.529Z,65.57
2019-06-07T01:19:18.893Z,65.33
2019-06-07T01:21:48.801Z,65.33
2019-06-07T01:24:17.886Z,65.35
2019-06-07T01:26:47.085Z,65.22
2019-06-07T01:29:17.716Z,65.31
2019-06-07T01:31:47.112Z,65.43
2019-06-07T01:34:16.270Z,65.55
2019-06-07T01:36:45.500Z,65.36
2019-06-07T01:39:14.606Z,65.32
2019-06-07T01:41:43.744Z,65.31
2019-06-07T01:44:12.824Z,65.57
2019-06-07T01:46:41.973Z,65.48
2019-06-07T01:49:11.048Z,65.80
2019-06-07T01:51:40.204Z,65.92
2019-06-07T01:56:40.202Z,65.79
2019-06-07T01:59:09.304Z,65.90
2019-06-07T02:01:38.562Z,65.92
2019-06-07T02:04:07.662Z,66.03
2019-06-07T02:06:36.813Z,66.11
2019-06-07T02:09:07.867Z,66.00
2019-06-07T02:11:36.964Z,65.90
2019-06-07T02:14:06.744Z,66.41
2019-06-07T02:16:35.927Z,66.54
2019-06-07T02:19:05.040Z,66.37
2019-06-07T02:21:34.704Z,66.52
2019-06-07T02:24:03.953Z,66.59
2019-06-07T02:26:33.066Z,66.65
2019-06-07T02:29:02.223Z,66.51
2019-06-07T02:31:38.919Z,66.55
2019-06-07T02:34:02.367Z,66.74
2019-06-07T02:36:39.151Z,66.68
2019-06-07T02:39:02.802Z,66.50
2019-06-07T02:41:38.474Z,66.62
2019-06-07T02:44:02.979Z,66.46
2019-06-07T02:46:40.047Z,66.40
2019-06-07T02:49:02.972Z,66.63
2019-06-07T02:51:37.791Z,66.64
2019-06-07T02:54:02.978Z,66.45
2019-06-07T02:56:48.601Z,66.44
2019-06-07T02:59:02.945Z,66.67
2019-06-07T03:01:38.706Z,66.52
2019-06-07T03:04:03.950Z,66.38
2019-06-07T03:06:38.890Z,66.25
2019-06-07T03:09:08.094Z,66.07
2019-06-07T03:11:40.939Z,65.97
2019-06-07T03:14:11.772Z,66.28
2019-06-07T03:16:48.332Z,66.25
2019-06-07T03:19:24.578Z,65.86
2019-06-07T03:21:54.612Z,65.98
2019-06-07T03:24:29.588Z,66.12
2019-06-07T03:29:28.882Z,65.87
2019-06-07T03:31:59.121Z,65.77
2019-06-07T03:34:32.156Z,65.95
2019-06-07T03:36:59.107Z,66.33
2019-06-07T03:39:29.464Z,66.50
2019-06-07T03:42:06.527Z,66.57
2019-06-07T03:44:33.000Z,66.36
2019-06-07T03:47:00.872Z,66.04
2019-06-07T03:49:31.510Z,65.95
2019-06-07T03:52:00.916Z,66.50
2019-06-07T03:54:32.001Z,66.62
2019-06-07T03:57:00.983Z,66.36
2019-06-07T03:59:35.571Z,66.34
2019-06-07T04:02:01.012Z,66.18
2019-06-07T04:04:30.136Z,66.32
2019-06-07T04:06:59.304Z,66.16
2019-06-07T04:09:29.382Z,66.34
2019-06-07T04:11:59.279Z,65.94
2019-06-07T04:14:29.719Z,65.50
2019-06-07T04:16:59.300Z,65.29
2019-06-07T04:19:28.884Z,65.15
2019-06-07T04:21:58.649Z,65.09
2019-06-07T04:24:28.636Z,65.07
2019-06-07T04:26:57.885Z,64.70
2019-06-07T04:30:01.484Z,65.48
2019-06-07T04:31:57.862Z,64.66
2019-06-07T04:34:26.998Z,64.53
2019-06-07T04:36:59.564Z,64.28
2019-06-07T04:39:33.085Z,63.98
2019-06-07T04:42:00.937Z,64.23
2019-06-07T04:44:31.281Z,64.21
2019-06-07T04:47:02.326Z,64.37
2019-06-07T04:49:36.930Z,64.13
2019-06-07T04:52:05.156Z,64.27
2019-06-07T04:54:37.354Z,64.69
2019-06-07T04:57:05.195Z,64.53
2019-06-07T05:00:11.383Z,64.24
2019-06-07T05:02:05.291Z,64.36
2019-06-07T05:04:35.016Z,64.17
2019-06-07T05:07:05.262Z,64.19
2019-06-07T05:09:37.559Z,64.56
2019-06-07T05:12:05.268Z,64.49
2019-06-07T05:14:35.044Z,64.75
2019-06-07T05:17:05.354Z,64.40
2019-06-07T05:19:36.893Z,64.60
2019-06-07T05:22:05.534Z,64.88
2019-06-07T05:24:37.670Z,64.80
2019-06-07T05:27:05.625Z,64.89
2019-06-07T05:29:38.371Z,65.05
2019-06-07T05:32:05.626Z,65.08
2019-06-07T05:34:36.938Z,64.96
2019-06-07T05:37:11.543Z,64.78
2019-06-07T05:39:38.471Z,64.88
2019-06-07T05:42:07.962Z,64.93
2019-06-07T05:44:39.126Z,65.13
2019-06-07T05:47:08.091Z,65.16
2019-06-07T05:49:40.640Z,65.15
2019-06-07T05:52:08.202Z,65.13
2019-06-07T05:54:38.222Z,64.60
2019-06-07T05:57:08.308Z,64.78
2019-06-07T05:59:40.026Z,63.88
2019-06-07T06:02:21.804Z,63.38
2019-06-07T06:04:42.624Z,63.46
2019-06-07T06:07:10.145Z,63.52
2019-06-07T06:09:40.670Z,63.45
2019-06-07T06:12:09.849Z,63.35
2019-06-07T06:14:41.983Z,62.94
2019-06-07T06:17:09.917Z,63.01
2019-06-07T06:19:40.708Z,62.99
2019-06-07T06:22:09.891Z,62.96
2019-06-07T06:24:41.960Z,62.73
2019-06-07T06:27:41.499Z,62.71
2019-06-07T06:29:42.336Z,63.28
2019-06-07T06:32:40.997Z,62.62
2019-06-07T06:34:46.211Z,63.29
2019-06-07T06:37:13.865Z,63.16
2019-06-07T06:39:46.690Z,62.84
2019-06-07T06:42:13.874Z,62.55
2019-06-07T06:44:44.488Z,63.25
2019-06-07T06:47:13.829Z,62.80
2019-06-07T06:49:44.238Z,62.96
2019-06-07T06:52:14.037Z,62.63
2019-06-07T06:54:48.763Z,62.13
2019-06-07T06:57:19.641Z,62.32
2019-06-07T06:59:47.590Z,63.39
2019-06-07T07:02:15.849Z,62.24
2019-06-07T07:04:46.106Z,62.75
2019-06-07T07:07:16.833Z,62.18
2019-06-07T07:09:51.017Z,62.19
2019-06-07T07:12:16.998Z,62.26
2019-06-07T07:14:49.539Z,62.82
2019-06-07T07:17:16.993Z,61.69
2019-06-07T07:19:48.445Z,62.02
2019-06-07T07:22:17.026Z,61.73
2019-06-07T07:24:47.049Z,61.90
2019-06-07T07:27:17.021Z,61.89
2019-06-07T07:29:49.867Z,61.76
2019-06-07T07:32:16.984Z,61.33
2019-06-07T07:34:49.524Z,60.65
2019-06-07T07:37:16.947Z,61.70
2019-06-07T07:39:48.643Z,61.29
2019-06-07T07:42:21.249Z,61.15
2019-06-07T07:44:49.890Z,60.90
2019-06-07T07:47:18.855Z,60.37
2019-06-07T07:49:52.202Z,61.11
2019-06-07T07:52:18.883Z,61.22
2019-06-07T07:54:49.324Z,61.36
2019-06-07T07:57:18.974Z,61.11
2019-06-07T08:00:12.089Z,61.25
2019-06-07T08:02:18.942Z,60.52
2019-06-07T08:07:18.985Z,59.60
2019-06-07T08:09:51.461Z,60.83
2019-06-07T08:12:19.028Z,59.96
2019-06-07T08:14:50.266Z,60.48
2019-06-07T08:17:19.186Z,59.19
2019-06-07T08:19:49.895Z,60.11
2019-06-07T08:22:19.213Z,58.60
2019-06-07T08:24:50.483Z,59.29
2019-06-07T08:27:26.312Z,59.13
2019-06-07T08:30:13.627Z,58.14
2019-06-07T08:32:20.990Z,57.42
2019-06-07T08:34:54.962Z,57.96
2019-06-07T08:37:23.649Z,57.25
2019-06-07T08:39:56.030Z,57.17
2019-06-07T08:42:36.599Z,56.79
2019-06-07T08:45:01.564Z,57.71
2019-06-07T08:47:25.457Z,57.42
2019-06-07T08:49:59.599Z,56.81
2019-06-07T08:52:25.499Z,56.11
2019-06-07T08:54:57.012Z,57.51
2019-06-07T08:57:25.482Z,56.29
2019-06-07T08:59:56.542Z,56.78
2019-06-07T09:02:25.949Z,55.91
2019-06-07T09:04:58.620Z,55.87
2019-06-07T09:07:26.111Z,55.29
2019-06-07T09:10:03.449Z,55.16
2019-06-07T09:12:26.235Z,54.06
2019-06-07T09:15:06.903Z,55.26
2019-06-07T09:17:26.335Z,55.43
2019-06-07T09:19:56.258Z,55.10
2019-06-07T09:22:26.336Z,54.29
2019-06-07T09:25:04.313Z,54.55
2019-06-07T09:27:28.027Z,55.13
2019-06-07T09:30:04.775Z,53.01
2019-06-07T09:32:28.342Z,52.86
2019-06-07T09:35:00.095Z,52.22
2019-06-07T09:40:05.571Z,54.31
2019-06-07T09:42:30.403Z,53.68
2019-06-07T09:45:02.090Z,52.46
2019-06-07T09:47:32.914Z,52.93
2019-06-07T09:50:07.091Z,52.29
2019-06-07T09:52:56.547Z,52.36
2019-06-07T09:55:14.433Z,50.69
2019-06-07T09:57:33.890Z,51.74
2019-06-07T10:00:36.100Z,51.37
2019-06-07T10:02:33.936Z,51.40
2019-06-07T10:05:06.993Z,51.60
2019-06-07T10:07:34.043Z,50.66
2019-06-07T10:12:34.187Z,49.50
2019-06-07T10:15:03.590Z,49.64
2019-06-07T10:17:33.277Z,49.66
2019-06-07T10:20:03.910Z,49.46
2019-06-07T10:22:33.272Z,48.44
2019-06-07T10:25:02.462Z,50.82
2019-06-07T10:27:31.627Z,48.67
2019-06-07T10:30:02.335Z,47.72
2019-06-07T10:32:31.532Z,49.90
2019-06-07T10:35:00.634Z,47.83
2019-06-07T10:37:29.757Z,48.51
2019-06-07T10:39:58.916Z,47.31
2019-06-07T10:42:28.074Z,47.74
2019-06-07T10:44:57.213Z,46.36
2019-06-07T10:47:26.477Z,47.12
2019-06-07T10:49:55.641Z,47.09
2019-06-07T10:52:24.800Z,46.40
2019-06-07T10:54:53.921Z,45.66
2019-06-07T10:57:23.083Z,45.27
2019-06-07T10:59:52.260Z,45.11
2019-06-07T11:02:21.371Z,44.80
2019-06-07T11:04:50.492Z,46.05
2019-06-07T11:07:19.672Z,44.18
2019-06-07T11:10:05.645Z,44.80
2019-06-07T11:12:19.728Z,43.95
2019-06-07T11:14:48.891Z,43.89
2019-06-07T11:17:18.046Z,43.44
2019-06-07T11:19:47.198Z,43.44
2019-06-07T11:22:16.410Z,43.51
2019-06-07T11:24:45.555Z,43.30
2019-06-07T11:27:16.388Z,44.17
2019-06-07T11:29:45.747Z,42.84
2019-06-07T11:32:14.912Z,42.59
2019-06-07T11:34:44.043Z,41.84
2019-06-07T11:37:13.809Z,41.68
2019-06-07T11:39:44.236Z,41.69
2019-06-07T11:42:14.017Z,42.35
2019-06-07T11:44:56.188Z,40.57
2019-06-07T11:47:14.511Z,40.93
2019-06-07T11:49:43.789Z,39.81
2019-06-07T11:52:13.930Z,40.65
2019-06-07T11:54:43.247Z,39.27
2019-06-07T11:57:13.038Z,38.02
2019-06-07T11:59:42.312Z,38.76
2019-06-07T12:02:11.549Z,39.40
2019-06-07T12:04:40.654Z,37.95
2019-06-07T12:07:10.847Z,39.32
2019-06-07T12:09:55.553Z,39.06
2019-06-07T12:12:12.597Z,39.31
2019-06-07T12:14:41.796Z,37.11
2019-06-07T12:17:11.280Z,36.60
2019-06-07T12:19:40.606Z,37.65
2019-06-07T12:22:09.901Z,38.96
2019-06-07T12:24:39.078Z,37.64
2019-06-07T12:27:08.209Z,37.78
2019-06-07T12:29:37.371Z,38.86
2019-06-07T12:32:06.517Z,36.50
2019-06-07T12:34:35.704Z,37.33
2019-06-07T12:37:05.052Z,38.58
2019-06-07T12:39:34.171Z,36.93
2019-06-07T12:42:03.392Z,36.73
2019-06-07T12:44:32.519Z,37.03
2019-06-07T12:47:01.649Z,35.18
2019-06-07T12:49:30.838Z,35.67
2019-06-07T12:52:00.023Z,36.29
2019-06-07T12:54:29.178Z,36.95
2019-06-07T12:56:58.351Z,36.08
2019-06-07T12:59:27.496Z,36.25
2019-06-07T13:02:02.025Z,35.77
2019-06-07T13:04:27.795Z,35.44
2019-06-07T13:06:57.106Z,35.26
2019-06-07T13:09:26.270Z,35.77
2019-06-07T13:11:55.392Z,36.16
2019-06-07T13:14:24.663Z,34.89
2019-06-07T13:16:53.893Z,32.77
2019-06-07T13:19:24.236Z,34.23
2019-06-07T13:21:53.563Z,35.16
2019-06-07T13:24:22.911Z,33.76
2019-06-07T13:26:52.206Z,33.52
2019-06-07T13:29:22.602Z,33.27
2019-06-07T13:31:52.059Z,35.04
2019-06-07T13:34:22.430Z,34.92
2019-06-07T13:36:51.644Z,32.54
2019-06-07T13:39:23.304Z,32.85
2019-06-07T13:41:51.712Z,33.33
2019-06-07T13:44:21.009Z,34.76
2019-06-07T13:46:50.350Z,32.83
2019-06-07T13:49:19.532Z,34.10
2019-06-07T13:51:48.657Z,34.98
2019-06-07T13:54:18.571Z,34.58
2019-06-07T13:57:01.507Z,33.59
2019-06-07T13:59:19.254Z,31.88
2019-06-07T14:01:49.616Z,33.88
2019-06-07T14:04:18.972Z,32.50
2019-06-07T14:06:48.205Z,33.44
2019-06-07T14:09:17.325Z,32.27
2019-06-07T14:11:50.352Z,32.17
2019-06-07T14:14:17.368Z,33.09
2019-06-07T14:16:46.551Z,33.41
2019-06-07T14:19:15.677Z,32.38
2019-06-07T14:21:44.815Z,32.40
2019-06-07T14:24:13.979Z,31.84
2019-06-07T14:26:45.829Z,33.01
2019-06-07T14:29:16.359Z,31.03
2019-06-07T14:31:45.536Z,33.00
2019-06-07T14:34:14.713Z,32.33
2019-06-07T14:36:43.935Z,30.82
2019-06-07T14:39:13.108Z,32.89
2019-06-07T14:41:42.289Z,32.25
2019-06-07T14:44:11.430Z,32.89
2019-06-07T14:46:40.548Z,33.71
2019-06-07T14:49:09.780Z,33.52
2019-06-07T14:51:38.906Z,31.93
2019-06-07T14:54:08.052Z,32.24
2019-06-07T14:56:37.170Z,31.77
2019-06-07T14:59:06.339Z,32.47
2019-06-07T15:01:35.761Z,31.46
2019-06-07T15:04:05.343Z,31.44
2019-06-07T15:06:35.844Z,31.30
2019-06-07T15:09:06.700Z,30.38
2019-06-07T15:11:36.037Z,30.14
2019-06-07T15:14:05.481Z,29.96
2019-06-07T15:16:35.816Z,29.55
2019-06-07T15:19:05.140Z,29.84
2019-06-07T15:21:35.096Z,29.32
2019-06-07T15:24:04.698Z,28.84
2019-06-07T15:26:34.565Z,28.05
2019-06-07T15:29:04.076Z,27.82
2019-06-07T15:31:34.599Z,27.14
2019-06-07T15:34:04.218Z,26.09
2019-06-07T15:36:34.437Z,25.67
2019-06-07T15:39:07.003Z,24.77
2019-06-07T15:41:37.173Z,24.27
2019-06-07T15:44:06.402Z,23.22
2019-06-07T15:46:35.729Z,22.82
2019-06-07T15:49:04.965Z,22.74
2019-06-07T15:51:34.516Z,23.48
2019-06-07T15:54:03.685Z,23.55
2019-06-07T15:56:32.828Z,24.17
2019-06-07T15:59:01.985Z,24.51
2019-06-07T16:01:31.245Z,24.89
2019-06-07T16:04:00.333Z,25.88
2019-06-07T16:06:29.623Z,25.34
2019-06-07T16:08:58.856Z,25.84
2019-06-07T16:11:27.984Z,25.73
2019-06-07T16:13:57.185Z,26.43
2019-06-07T16:16:26.359Z,26.78
2019-06-07T16:18:55.529Z,27.26
2019-06-07T16:21:24.701Z,28.27
2019-06-07T16:23:53.982Z,28.71
2019-06-07T16:26:23.160Z,29.15
2019-06-07T16:28:52.330Z,28.97
2019-06-07T16:31:21.525Z,29.21
2019-06-07T16:33:50.677Z,30.97
2019-06-07T16:36:19.788Z,30.41
2019-06-07T16:38:48.960Z,31.10
2019-06-07T16:41:18.154Z,31.88
2019-06-07T16:43:48.871Z,32.96
2019-06-07T16:46:18.148Z,32.67
2019-06-07T16:48:47.320Z,33.13
2019-06-07T16:51:16.456Z,33.36
2019-06-07T16:53:45.600Z,34.21
2019-06-07T16:56:14.735Z,33.85
2019-06-07T16:58:44.367Z,34.01
2019-06-07T17:01:13.644Z,34.46
2019-06-07T17:03:43.537Z,34.57
2019-06-07T17:06:12.765Z,33.79
2019-06-07T17:08:42.203Z,34.09
2019-06-07T17:11:11.401Z,34.86
2019-06-07T17:13:40.536Z,35.38
2019-06-07T17:16:09.655Z,35.57
2019-06-07T17:18:39.066Z,35.45
2019-06-07T17:21:08.321Z,36.17
2019-06-07T17:23:37.517Z,36.47
2019-06-07T17:26:06.681Z,36.48
2019-06-07T17:28:35.864Z,36.63
2019-06-07T17:31:05.048Z,36.86
2019-06-07T17:33:34.209Z,37.22
2019-06-07T17:36:03.516Z,37.30
2019-06-07T17:38:32.736Z,37.80
2019-06-07T17:41:01.891Z,37.55
2019-06-07T17:43:31.064Z,37.97
2019-06-07T17:46:00.230Z,37.48
2019-06-07T17:48:29.372Z,37.81
2019-06-07T17:50:58.492Z,37.76
2019-06-07T17:53:30.529Z,38.37
2019-06-07T17:55:58.543Z,39.01
2019-06-07T17:58:27.676Z,39.09
2019-06-07T18:00:57.063Z,39.29
2019-06-07T18:03:26.309Z,39.82
2019-06-07T18:05:55.579Z,39.92
2019-06-07T18:08:25.817Z,39.86
2019-06-07T18:10:54.950Z,40.15
2019-06-07T18:13:24.247Z,40.44
2019-06-07T18:15:57.872Z,41.00
2019-06-07T18:18:24.301Z,40.78
2019-06-07T18:20:53.583Z,41.39
2019-06-07T18:23:23.218Z,41.26
2019-06-07T18:25:52.622Z,41.49
2019-06-07T18:28:21.848Z,42.10
2019-06-07T18:30:51.022Z,42.04
2019-06-07T18:33:20.144Z,42.61
2019-06-07T18:35:49.312Z,43.07
2019-06-07T18:38:18.453Z,43.30
2019-06-07T18:40:47.585Z,43.14
2019-06-07T18:43:16.773Z,43.42
2019-06-07T18:45:47.186Z,43.31
2019-06-07T18:48:16.642Z,43.44
2019-06-07T18:50:46.545Z,43.44
2019-06-07T18:53:15.861Z,44.20
2019-06-07T18:55:45.040Z,44.45
2019-06-07T18:58:14.251Z,45.58
2019-06-07T19:00:43.439Z,46.35
2019-06-07T19:03:12.630Z,47.02
2019-06-07T19:05:41.874Z,46.85
2019-06-07T19:08:11.043Z,46.74
2019-06-07T19:10:40.352Z,46.79
2019-06-07T19:13:09.570Z,46.85
2019-06-07T19:15:38.821Z,47.37
2019-06-07T19:18:08.041Z,47.76
2019-06-07T19:20:37.369Z,48.40
2019-06-07T19:23:06.664Z,49.03
2019-06-07T19:25:37.404Z,48.44
2019-06-07T19:28:06.607Z,49.07
2019-06-07T19:30:35.776Z,49.08
2019-06-07T19:33:05.051Z,49.00
2019-06-07T19:35:34.527Z,49.34
2019-06-07T19:38:03.728Z,50.21
2019-06-07T19:40:32.997Z,49.26
2019-06-07T19:43:03.907Z,49.44
2019-06-07T19:45:33.355Z,49.30
2019-06-07T19:48:02.888Z,50.82
2019-06-07T19:50:32.219Z,49.96
2019-06-07T19:53:01.419Z,50.32
2019-06-07T19:55:30.554Z,50.41
2019-06-07T19:57:59.746Z,50.59
2019-06-07T20:00:28.921Z,50.59
2019-06-07T20:02:58.165Z,50.71
2019-06-07T20:05:27.369Z,50.42
2019-06-07T20:07:56.584Z,50.63
2019-06-07T20:10:25.765Z,50.66
2019-06-07T20:12:54.983Z,50.65
2019-06-07T20:15:29.173Z,50.82
2019-06-07T20:17:55.230Z,50.81
2019-06-07T20:20:24.404Z,50.79
2019-06-07T20:22:53.570Z,50.78
2019-06-07T20:25:22.718Z,50.38
2019-06-07T20:27:51.916Z,50.41
2019-06-07T20:30:21.114Z,49.71
2019-06-07T20:32:50.343Z,49.32
2019-06-07T20:35:19.590Z,48.09
2019-06-07T20:37:48.760Z,47.97
2019-06-07T20:40:24.312Z,46.89
2019-06-07T20:42:49.019Z,46.84
2019-06-07T20:45:32.643Z,46.53
2019-06-07T20:47:49.150Z,46.26
2019-06-07T20:50:18.528Z,45.68
2019-06-07T20:52:47.729Z,45.70
2019-06-07T20:55:17.091Z,45.72
2019-06-07T20:57:46.252Z,46.68
2019-06-07T21:00:21.340Z,47.88
2019-06-07T21:02:47.118Z,48.66
2019-06-07T21:05:16.300Z,49.93
2019-06-07T21:07:45.511Z,51.18
2019-06-07T21:10:14.675Z,52.72
2019-06-07T21:12:43.825Z,53.06
2019-06-07T21:15:14.677Z,54.66
2019-06-07T21:17:44.201Z,54.87
2019-06-07T21:20:14.409Z,55.01
2019-06-07T21:22:43.934Z,55.25
2019-06-07T21:25:14.711Z,56.46
2019-06-07T21:27:43.951Z,56.55
2019-06-07T21:30:13.325Z,57.02
2019-06-07T21:32:42.480Z,57.41
2019-06-07T21:35:12.482Z,56.25
2019-06-07T21:37:41.681Z,55.96
2019-06-07T21:40:13.110Z,55.48
2019-06-07T21:42:42.473Z,54.20
2019-06-07T21:45:13.530Z,52.46
2019-06-07T21:47:43.247Z,52.83
2019-06-07T21:50:12.834Z,53.66
2019-06-07T21:52:42.091Z,53.60
2019-06-07T21:55:11.612Z,53.08
2019-06-07T21:57:40.793Z,53.02
2019-06-07T22:00:14.315Z,53.20
2019-06-07T22:02:43.710Z,53.14
2019-06-07T22:05:13.890Z,53.50
2019-06-07T22:07:43.298Z,53.54
2019-06-07T22:10:14.458Z,53.75
2019-06-07T22:12:43.768Z,53.81
2019-06-07T22:15:31.103Z,53.48
2019-06-07T22:17:44.247Z,53.02
2019-06-07T22:20:14.767Z,52.77
2019-06-07T22:22:43.999Z,52.51
2019-06-07T22:25:13.179Z,53.18
2019-06-07T22:27:42.377Z,53.55
2019-06-07T22:30:12.586Z,53.32
2019-06-07T22:32:41.841Z,52.29
2019-06-07T22:35:11.083Z,52.25
2019-06-07T22:37:40.234Z,51.51
2019-06-07T22:40:10.691Z,51.46
2019-06-07T22:42:40.147Z,51.19
2019-06-07T22:45:10.929Z,51.46
2019-06-07T22:47:40.371Z,50.88
2019-06-07T22:50:11.322Z,50.53
2019-06-07T22:52:41.861Z,50.34
2019-06-07T22:55:12.152Z,50.14
2019-06-07T22:57:56.389Z,50.43
2019-06-07T23:00:26.900Z,50.40
2019-06-07T23:02:56.365Z,50.10
2019-06-07T23:05:25.517Z,49.88
2019-06-07T23:07:54.655Z,50.31
2019-06-07T23:10:23.822Z,49.94
2019-06-07T23:12:53.028Z,50.13
2019-06-07T23:15:22.283Z,51.01
2019-06-07T23:17:51.441Z,50.74
2019-06-07T23:20:21.005Z,50.85
2019-06-07T23:22:50.089Z,50.54
2019-06-07T23:25:22.977Z,50.56
2019-06-07T23:27:50.122Z,50.61
2019-06-07T23:30:21.434Z,51.33
2019-06-07T23:32:50.335Z,51.39
2019-06-07T23:35:19.552Z,51.50
2019-06-07T23:37:49.751Z,51.54
2019-06-07T23:40:19.504Z,51.73
2019-06-07T23:42:48.772Z,51.86
2019-06-07T23:45:18.005Z,51.74
2019-06-07T23:47:47.120Z,52.22
2019-06-07T23:50:17.641Z,52.05
2019-06-07T23:52:46.925Z,51.67
2019-06-07T23:55:17.836Z,51.73
2019-06-07T23:57:47.054Z,51.53
